WetterOnline ( https://www.wetteronline.de )

Wetter aktuell Finsterwalde

Aktuelles Wetter: Kirchhain (100m)

6-stündlich | Neueste Meldungen
Ortszeit Temperatur Wetter
Mo, 17.06. 2:00 15.5° C bedeckt
So, 16.06. 20:00 23.1° C leicht bewölkt
So, 16.06. 14:00 23.3° C wolkig
So, 16.06. 8:00 16.3° C wolkenlos
So, 16.06. 2:00 12.0° C wolkig
Sa, 15.06. 20:00 21.4° C leicht bewölkt
Sa, 15.06. 14:00 20.6° C bewölkt
Sa, 15.06. 8:00 19.1° C bewölkt
Ortszeit Temperatur Wetter
Mo, 17.06. 2:00 15.5° C bedeckt
Mo, 17.06. 1:50 15.5° C bedeckt
Mo, 17.06. 1:40 15.3° C bewölkt
Mo, 17.06. 1:30 15.4° C wolkig
Mo, 17.06. 1:20 15.4° C wolkig
Mo, 17.06. 1:10 15.3° C bedeckt
Mo, 17.06. 1:00 15.7° C bedeckt
Mo, 17.06. 0:30 15.2° C bedeckt
Mo, 17.06. 0:00 14.7° C bewölkt
So, 16.06. 23:30 14.5° C wolkig
So, 16.06. 23:00 14.6° C bedeckt
Ortszeit Relative Feuchte Sichtweite
Mo, 17.06. 2:00 78% 60 km
So, 16.06. 20:00 40% 30 km
So, 16.06. 14:00 37% 45 km
So, 16.06. 8:00 67% 45 km
So, 16.06. 2:00 85% 50 km
Sa, 15.06. 20:00 40% 45 km
Sa, 15.06. 14:00 63% 60 km
Sa, 15.06. 8:00 60% 35 km
Ortszeit Relative Feuchte Sichtweite
Mo, 17.06. 2:00 78% 60 km
Mo, 17.06. 1:50 78% -
Mo, 17.06. 1:40 79% -
Mo, 17.06. 1:30 80% 60 km
Mo, 17.06. 1:20 80% -
Mo, 17.06. 1:10 84% -
Mo, 17.06. 1:00 78% 50 km
Mo, 17.06. 0:30 82% 55 km
Mo, 17.06. 0:00 78% 65 km
So, 16.06. 23:30 80% 55 km
So, 16.06. 23:00 79% 55 km
Ortszeit Niederschlagsmenge Niederschlagsart
Mo, 17.06. 2:00 0.1 l/m2 in 6 Std. Regen
So, 16.06. 20:00 0.3 l/m2 in 12 Std. Regen
So, 16.06. 14:00 0.0 l/m2 in 6 Std. -
So, 16.06. 8:00 0.0 l/m2 in 12 Std. -
So, 16.06. 2:00 0.0 l/m2 in 6 Std. -
Sa, 15.06. 20:00 3 l/m2 in 12 Std. -
Sa, 15.06. 14:00 3 l/m2 in 6 Std. Regen
Sa, 15.06. 8:00 0.0 l/m2 in 12 Std. -
Ortszeit Niederschlagsmenge Niederschlagsart
Mo, 17.06. 2:00 0.0 l/m2 in 1 Std. Regen
Mo, 17.06. 1:50 keine Meldung -
Mo, 17.06. 1:40 keine Meldung -
Mo, 17.06. 1:30 0.0 l/m2 in 30 Min -
Mo, 17.06. 1:20 keine Meldung -
Mo, 17.06. 1:10 keine Meldung -
Mo, 17.06. 1:00 <0.05 l/m2 in 1 Std. Regen
Mo, 17.06. 0:30 <0.05 l/m2 in 30 Min Schneeregen
Mo, 17.06. 0:00 0.0 l/m2 in 1 Std. -
So, 16.06. 23:30 0.0 l/m2 in 30 Min -
So, 16.06. 23:00 0.0 l/m2 in 1 Std. -
Ortszeit Stärke Spitze Richtung
km/h Bft. km/h Grad Sektor
Mo, 17.06. 2:00 6 1 19 190° S
So, 16.06. 20:00 7 2 32 210° SW
So, 16.06. 14:00 11 2 32 200° S
So, 16.06. 8:00 6 1 11 170° S
So, 16.06. 2:00 4 1 18 210° SW
Sa, 15.06. 20:00 7 2 47 230° SW
Sa, 15.06. 14:00 19 3 33 220° SW
Sa, 15.06. 8:00 11 2 25 170° S
Ortszeit Stärke Spitze Richtung
km/h Bft. km/h Grad Sektor
Mo, 17.06. 2:00 6 1 19 190° S
Mo, 17.06. 1:50 6 1 - 190° S
Mo, 17.06. 1:40 4 1 - 170° S
Mo, 17.06. 1:30 9 2 19 160° S
Mo, 17.06. 1:20 9 2 - 160° S
Mo, 17.06. 1:10 4 1 - 170° S
Mo, 17.06. 1:00 7 2 11 340° N
Mo, 17.06. 0:30 4 1 11 320° NW
Mo, 17.06. 0:00 2 1 6 180° S
So, 16.06. 23:30 4 1 4 160° S
So, 16.06. 23:00 2 1 7 200° S
Ortszeit Untergrenze Bedeckung Gattung
total tief tief mittel hoch
Mo, 17.06. 2:00 1800 m 8/8 8/8 - - -
So, 16.06. 20:00 2400 m 2/8 1/8 - - -
So, 16.06. 14:00 1800 m 7/8 2/8 - - -
So, 16.06. 8:00 - 0/8 0/8 - - -
So, 16.06. 2:00 2400 m 8/8 2/8 - - -
Sa, 15.06. 20:00 2100 m 4/8 4/8 - - -
Sa, 15.06. 14:00 1050 m 7/8 7/8 - - -
Sa, 15.06. 8:00 2400 m 8/8 4/8 - - -
Ortszeit Bedeckungsgrad in Achtel und Wolkenuntergrenze
Mo, 17.06. 2:00 7(1800m) 8(2700m) 8(4500m)
Mo, 17.06. 1:50 7(1800m) 8(2700m) 8(4500m)
Mo, 17.06. 1:40 7
Mo, 17.06. 1:30 4(2100m) 7(3000m) 7(4500m)
Mo, 17.06. 1:20 4(2100m) 7(3000m) 7(4500m)
Mo, 17.06. 1:10 8
Mo, 17.06. 1:00 7(2100m) 8(2700m)
Mo, 17.06. 0:30 5(1800m) 8(2400m)
Mo, 17.06. 0:00 4(2400m) 8(6300m) 8(7800m)
So, 16.06. 23:30 3(2400m) 8(4500m) 8(6000m)
So, 16.06. 23:00 5(3600m) 8(6900m) 8(8100m)
Ortszeit Luftdruck NN (hPa) Tendenz (hPa in 3 Std.)
Mo, 17.06. 2:00 1012 + 1,0
So, 16.06. 20:00 1009 0,0
So, 16.06. 14:00 1010 - 0,9
So, 16.06. 8:00 1011 + 0,5
So, 16.06. 2:00 1011 + 0,4
Sa, 15.06. 20:00 1008 + 0,5
Sa, 15.06. 14:00 1007 - 0,6
Sa, 15.06. 8:00 1006 - 1,2
Ortszeit Luftdruck NN (hPa) Tendenz (hPa in 3 Std.)
Mo, 17.06. 2:00 1012 + 1,0
Mo, 17.06. 1:50 1012 keine Meldung
Mo, 17.06. 1:40 1012 keine Meldung
Mo, 17.06. 1:30 1012 + 1,1
Mo, 17.06. 1:20 1012 keine Meldung
Mo, 17.06. 1:10 1012 keine Meldung
Mo, 17.06. 1:00 1012 + 1,1
Mo, 17.06. 0:30 1011 + 1,0
Mo, 17.06. 0:00 1011 + 1,0
So, 16.06. 23:30 1011 + 1,3
So, 16.06. 23:00 1011 + 1,3
Ortszeit Schneehöhe (cm)
Mo, 17.06. 2:00 0
So, 16.06. 20:00 0
So, 16.06. 14:00 0
So, 16.06. 8:00 0
So, 16.06. 2:00 0
Sa, 15.06. 20:00 0
Sa, 15.06. 14:00 0
Sa, 15.06. 8:00 0
Ortszeit Schneehöhe (cm)
Mo, 17.06. 2:00 0
Mo, 17.06. 1:50 0
Mo, 17.06. 1:40 -
Mo, 17.06. 1:30 0
Mo, 17.06. 1:20 0
Mo, 17.06. 1:10 -
Mo, 17.06. 1:00 0
Mo, 17.06. 0:30 0
Mo, 17.06. 0:00 0
So, 16.06. 23:30 0
So, 16.06. 23:00 0
Link zu dieser Seite / Seite empfehlen

Das Wetter in ...